Time;durP1;ratioP1;P1;durP2;ratioP2;P2;SDS_P1;SDS_P2;PMS_P1;PMS_P2;Temp;Humidity;BMP_temperature;BMP_pressure;BME280_temperature;BME280_humidity;BME280_pressure;Samples;Min_cycle;Max_cycle;Signal;HPM_P1;HPM_P2
2022/04/28 00:01:30;;;;;;;11.53;8.03;;;6.40;99.90;;;;;;4954330;28;20203;-82
2022/04/28 00:03:56;;;;;;;9.37;7.53;;;6.30;99.90;;;;;;4938654;28;21025;-83
2022/04/28 00:06:21;;;;;;;12.10;8.70;;;6.30;99.90;;;;;;4952420;28;20195;-81
2022/04/28 00:08:47;;;;;;;10.80;8.13;;;6.30;99.90;;;;;;4923805;28;20188;-82
2022/04/28 00:11:12;;;;;;;18.00;7.57;;;6.20;99.90;;;;;;4945063;28;20201;-82
2022/04/28 00:13:39;;;;;;;13.60;8.93;;;;;;;;;;4952829;28;20205;-81
2022/04/28 00:16:04;;;;;;;8.93;6.07;;;6.20;99.90;;;;;;4951405;28;20631;-81
2022/04/28 00:18:30;;;;;;;9.83;7.43;;;6.10;99.90;;;;;;4952331;28;20184;-81
2022/04/28 00:20:55;;;;;;;11.80;7.33;;;6.10;99.90;;;;;;4951675;28;20210;-82
2022/04/28 00:23:21;;;;;;;10.37;8.27;;;6.00;99.90;;;;;;4935857;28;21201;-82
2022/04/28 00:25:46;;;;;;;11.43;7.50;;;5.90;99.90;;;;;;4931301;28;20191;-81
2022/04/28 00:28:12;;;;;;;10.13;7.50;;;5.90;99.90;;;;;;4955791;28;20265;-82
2022/04/28 00:30:38;;;;;;;9.03;7.87;;;5.90;99.90;;;;;;4953566;28;20208;-83
2022/04/28 00:33:03;;;;;;;11.10;8.57;;;5.80;99.90;;;;;;4951653;28;20219;-80
2022/04/28 00:35:29;;;;;;;12.47;8.50;;;5.90;99.90;;;;;;4947203;28;20243;-82
2022/04/28 00:37:54;;;;;;;12.97;9.27;;;5.80;99.90;;;;;;4951431;28;20196;-81
2022/04/28 00:40:20;;;;;;;10.03;7.53;;;5.90;99.90;;;;;;4949213;28;20196;-80
2022/04/28 00:42:45;;;;;;;9.10;6.93;;;5.90;99.90;;;;;;4946504;28;20604;-82
2022/04/28 00:45:11;;;;;;;15.33;9.37;;;5.80;99.90;;;;;;4942315;28;20203;-83
2022/04/28 00:50:41;;;;;;;13.15;9.32;;;5.80;99.90;;;;;;4909130;28;20229;-82
2022/04/28 00:53:12;;;;;;;13.85;9.40;;;5.80;99.90;;;;;;4936129;28;20208;-82
2022/04/28 00:55:38;;;;;;;10.85;8.45;;;5.80;99.90;;;;;;4952581;28;20180;-82
2022/04/28 00:58:05;;;;;;;13.00;9.30;;;5.80;99.90;;;;;;4952702;28;20187;-82
2022/04/28 01:00:31;;;;;;;15.00;7.78;;;5.70;99.90;;;;;;4959802;28;20212;-81
2022/04/28 01:02:56;;;;;;;12.23;8.40;;;5.70;99.90;;;;;;4953334;28;20263;-82
2022/04/28 01:05:22;;;;;;;10.47;8.70;;;5.70;99.90;;;;;;4941378;28;20255;-82
2022/04/28 01:07:48;;;;;;;11.60;8.57;;;5.70;99.90;;;;;;4935185;28;20605;-81
2022/04/28 01:10:14;;;;;;;12.73;8.90;;;5.80;99.90;;;;;;4936924;28;20251;-82
2022/04/28 01:12:40;;;;;;;13.68;9.82;;;5.70;99.90;;;;;;4955779;28;20211;-83
2022/04/28 01:15:06;;;;;;;15.87;10.33;;;5.70;99.90;;;;;;4958209;28;20185;-82
2022/04/28 01:17:32;;;;;;;18.85;11.18;;;5.60;99.90;;;;;;4961395;28;20451;-82
2022/04/28 01:19:57;;;;;;;17.73;9.20;;;5.60;99.90;;;;;;4960117;28;20566;-82
2022/04/28 01:22:25;;;;;;;15.17;10.90;;;5.70;99.90;;;;;;4942355;28;20192;-81
2022/04/28 01:24:51;;;;;;;16.60;10.13;;;5.70;99.90;;;;;;4954765;28;20187;-82
2022/04/28 01:27:18;;;;;;;13.73;9.60;;;5.70;99.90;;;;;;4936953;28;20203;-81
2022/04/28 01:29:43;;;;;;;12.60;9.60;;;5.50;99.90;;;;;;4955178;28;20246;-81
2022/04/28 01:32:09;;;;;;;14.40;9.90;;;5.50;99.90;;;;;;4958477;28;20625;-82
2022/04/28 01:34:34;;;;;;;14.33;10.10;;;5.40;99.90;;;;;;4957801;28;20191;-82
2022/04/28 01:37:00;;;;;;;15.10;10.17;;;5.50;99.90;;;;;;4952411;28;20187;-82
2022/04/28 01:39:25;;;;;;;12.77;9.53;;;5.50;99.90;;;;;;4943285;28;20188;-82
2022/04/28 01:41:50;;;;;;;13.23;10.00;;;5.50;99.90;;;;;;4951680;28;21187;-82
2022/04/28 01:44:16;;;;;;;14.00;10.73;;;5.50;99.90;;;;;;4950006;28;20224;-82
2022/04/28 01:46:42;;;;;;;14.27;9.53;;;5.40;99.90;;;;;;4945511;28;20188;-82
2022/04/28 01:49:08;;;;;;;17.77;9.35;;;5.30;99.90;;;;;;4957702;28;20183;-82
2022/04/28 01:57:01;;;;;;;14.32;11.38;;;5.30;99.90;;;;;;4949927;28;20739;-81
2022/04/28 01:59:27;;;;;;;18.60;8.97;;;5.30;99.90;;;;;;4938656;28;20194;-85
2022/04/28 02:01:53;;;;;;;11.90;8.77;;;;;;;;;;4968401;28;20204;-88
2022/04/28 02:04:19;;;;;;;12.48;9.35;;;5.30;99.90;;;;;;4959618;28;20181;-88
2022/04/28 02:06:45;;;;;;;15.55;9.60;;;5.20;99.90;;;;;;4960139;28;20630;-87
2022/04/28 02:09:11;;;;;;;14.70;9.53;;;5.20;99.90;;;;;;4946138;28;20205;-88
2022/04/28 02:11:36;;;;;;;13.63;10.30;;;5.20;99.90;;;;;;4947042;28;20848;-87
2022/04/28 02:14:02;;;;;;;15.83;10.00;;;;;;;;;;4957068;28;20243;-86
2022/04/28 02:16:28;;;;;;;16.73;9.57;;;5.10;99.90;;;;;;4961916;28;20183;-85
2022/04/28 02:18:53;;;;;;;14.30;9.80;;;5.20;99.90;;;;;;4946848;28;20467;-86
2022/04/28 02:21:19;;;;;;;13.27;9.80;;;6.60;99.90;;;;;;4948248;28;20696;-85
2022/04/28 02:23:45;;;;;;;11.80;9.23;;;;;;;;;;4945478;28;20185;-84
2022/04/28 02:26:10;;;;;;;14.10;9.47;;;5.10;99.90;;;;;;4955766;28;20185;-84
2022/04/28 02:28:36;;;;;;;16.43;8.80;;;4.50;99.90;;;;;;4935204;28;20462;-84
2022/04/28 02:31:02;;;;;;;13.23;8.83;;;;;;;;;;4952834;28;20288;-84
2022/04/28 02:33:27;;;;;;;14.23;9.65;;;5.10;99.90;;;;;;4959556;28;20219;-85
2022/04/28 02:35:53;;;;;;;13.50;9.37;;;;;;;;;;4942337;28;20188;-84
2022/04/28 02:38:19;;;;;;;13.90;8.17;;;;;;;;;;4942628;28;20188;-86
2022/04/28 02:40:45;;;;;;;15.07;10.00;;;5.10;99.90;;;;;;4955397;28;20475;-85
2022/04/28 02:43:11;;;;;;;23.87;10.73;;;;;;;;;;4934648;28;20431;-86
2022/04/28 02:45:36;;;;;;;14.90;9.27;;;4.90;99.90;;;;;;4945240;29;20201;-86
2022/04/28 02:48:02;;;;;;;14.73;9.20;;;4.90;99.90;;;;;;4949272;28;20454;-85
2022/04/28 02:50:28;;;;;;;15.27;10.40;;;4.90;99.90;;;;;;4949096;28;20272;-86
2022/04/28 02:52:54;;;;;;;16.37;11.77;;;;;;;;;;4950600;28;20204;-85
2022/04/28 02:55:20;;;;;;;17.40;10.93;;;4.80;99.90;;;;;;4964884;28;20199;-86
2022/04/28 02:57:46;;;;;;;17.92;11.60;;;4.80;99.90;;;;;;4961684;28;20184;-84
2022/04/28 03:00:12;;;;;;;24.13;12.70;;;;;;;;;;4949345;28;20207;-85
2022/04/28 03:02:37;;;;;;;21.25;13.30;;;4.60;99.90;;;;;;4957312;28;20195;-84
2022/04/28 03:05:04;;;;;;;25.97;12.90;;;4.50;99.90;;;;;;4941322;28;20181;-85
2022/04/28 03:13:00;;;;;;;21.63;11.40;;;4.60;99.90;;;;;;4958645;28;20279;-85
2022/04/28 03:15:26;;;;;;;18.03;11.57;;;4.70;99.90;;;;;;4940801;28;20188;-84
2022/04/28 03:17:51;;;;;;;18.47;12.77;;;;;;;;;;4946570;28;20187;-83
2022/04/28 03:20:17;;;;;;;20.80;10.97;;;4.80;99.90;;;;;;4966265;28;20527;-85
2022/04/28 03:22:43;;;;;;;19.30;12.20;;;4.70;99.90;;;;;;4951351;28;20454;-84
2022/04/28 03:25:09;;;;;;;17.55;11.73;;;4.70;99.90;;;;;;4934620;28;20185;-84
2022/04/28 03:27:35;;;;;;;20.63;12.57;;;4.70;99.90;;;;;;4940593;28;20185;-83
2022/04/28 03:30:02;;;;;;;23.43;14.63;;;4.60;99.90;;;;;;4950727;28;20620;-84
2022/04/28 03:32:27;;;;;;;17.52;11.32;;;4.60;99.90;;;;;;4942673;28;20263;-85
2022/04/28 03:34:53;;;;;;;18.93;12.20;;;4.50;99.90;;;;;;4958580;28;20235;-84
2022/04/28 03:37:19;;;;;;;20.63;12.80;;;4.50;99.90;;;;;;4951566;28;20218;-85
2022/04/28 03:39:45;;;;;;;16.30;11.70;;;;;;;;;;4942979;28;20181;-84
2022/04/28 03:42:10;;;;;;;20.07;10.90;;;;;;;;;;4958551;28;20259;-85
2022/04/28 03:44:36;;;;;;;17.13;11.53;;;4.40;99.90;;;;;;4959097;28;20444;-85
2022/04/28 03:47:03;;;;;;;17.83;11.60;;;4.30;99.90;;;;;;4941829;28;20862;-84
2022/04/28 03:49:28;;;;;;;20.30;11.70;;;4.30;99.90;;;;;;4959041;28;20195;-86
2022/04/28 03:51:54;;;;;;;17.57;12.20;;;;;;;;;;4961916;28;20260;-83
2022/04/28 03:54:21;;;;;;;20.77;12.18;;;4.30;99.90;;;;;;4955380;28;22698;-84
2022/04/28 03:56:47;;;;;;;17.17;11.18;;;;;;;;;;4947115;28;20220;-83
2022/04/28 03:59:13;;;;;;;20.50;12.20;;;4.50;99.90;;;;;;4958568;28;20191;-86
2022/04/28 04:01:38;;;;;;;17.17;12.00;;;4.40;99.90;;;;;;4944550;28;20295;-84
2022/04/28 04:04:04;;;;;;;20.20;12.20;;;4.50;99.90;;;;;;4956442;28;20189;-84
2022/04/28 04:06:31;;;;;;;18.90;12.47;;;4.40;99.90;;;;;;4947281;28;20184;-83
2022/04/28 04:08:58;;;;;;;17.83;12.85;;;4.40;99.90;;;;;;4943855;28;20212;-85
2022/04/28 04:11:23;;;;;;;17.38;12.15;;;8.90;99.90;;;;;;4948526;28;20219;-87
2022/04/28 04:13:49;;;;;;;16.60;10.43;;;4.50;99.90;;;;;;4961048;28;20211;-87
2022/04/28 04:16:15;;;;;;;19.77;12.60;;;4.60;99.90;;;;;;4945638;28;20196;-86
2022/04/28 04:18:41;;;;;;;21.50;12.27;;;5.20;99.90;;;;;;4967505;28;20539;-86
2022/04/28 04:21:06;;;;;;;20.80;12.50;;;4.60;99.90;;;;;;4953745;28;20204;-86
2022/04/28 04:23:32;;;;;;;22.10;13.20;;;;;;;;;;4969185;28;20216;-86
2022/04/28 04:25:58;;;;;;;19.70;13.73;;;4.80;99.90;;;;;;4949475;28;21145;-87
2022/04/28 04:28:24;;;;;;;17.97;12.07;;;;;;;;;;4943033;28;20705;-86
2022/04/28 04:33:35;;;;;;;19.92;12.63;;;6.20;99.90;;;;;;4965551;28;20221;-88
2022/04/28 04:36:01;;;;;;;16.77;11.05;;;6.60;99.90;;;;;;4959754;28;20195;-85
2022/04/28 04:38:26;;;;;;;21.07;13.03;;;7.00;99.90;;;;;;4964244;28;20494;-82
2022/04/28 04:40:52;;;;;;;14.83;10.80;;;7.70;99.90;;;;;;4942394;28;20208;-83
2022/04/28 04:43:17;;;;;;;14.43;9.27;;;8.70;99.90;;;;;;4950417;28;20212;-82
2022/04/28 04:45:43;;;;;;;9.77;7.73;;;9.70;99.90;;;;;;4934237;28;20251;-82
2022/04/28 04:48:10;;;;;;;8.70;7.63;;;10.60;99.90;;;;;;4952275;28;20180;-83
2022/04/28 04:50:37;;;;;;;8.93;7.30;;;12.50;99.90;;;;;;4962264;28;20291;-82
2022/04/28 04:53:04;;;;;;;13.05;7.53;;;11.00;99.90;;;;;;4940187;28;20240;-81
2022/04/28 04:55:30;;;;;;;10.07;8.25;;;11.60;99.90;;;;;;4959809;28;20173;-82
2022/04/28 04:57:56;;;;;;;10.18;8.30;;;11.90;99.90;;;;;;4941328;28;20220;-88
2022/04/28 05:00:22;;;;;;;7.03;6.13;;;;;;;;;;4959695;28;20203;-88
2022/04/28 05:02:47;;;;;;;8.63;7.33;;;14.30;99.90;;;;;;4962670;28;20846;-89
2022/04/28 05:05:13;;;;;;;8.97;6.63;;;;;;;;;;4960742;28;20448;-88
2022/04/28 05:07:39;;;;;;;8.13;6.53;;;;;;;;;;4945584;29;20198;-88
2022/04/28 05:10:12;;;;;;;6.90;6.20;;;17.40;99.90;;;;;;4942263;29;20536;-89
2022/04/28 05:12:38;;;;;;;8.73;7.80;;;;;;;;;;4957158;28;20689;-88
2022/04/28 05:15:04;;;;;;;9.40;7.37;;;18.30;99.90;;;;;;4947543;29;20441;-88
2022/04/28 05:17:30;;;;;;;9.30;6.20;;;;;;;;;;4955218;28;20419;-88
2022/04/28 05:19:57;;;;;;;7.47;6.57;;;;;;;;;;4950219;28;20426;-88
2022/04/28 05:22:24;;;;;;;9.77;7.07;;;;;;;;;;4945206;29;20463;-87
2022/04/28 05:24:49;;;;;;;7.87;6.87;;;;;;;;;;4942665;29;20424;-88
2022/04/28 05:27:15;;;;;;;6.20;5.60;;;;;;;;;;4962789;28;20439;-88
2022/04/28 05:29:41;;;;;;;10.53;7.30;;;;;;;;;;4937287;28;20459;-87
2022/04/28 05:32:07;;;;;;;6.90;6.20;;;;;;;;;;4949471;28;20424;-88
2022/04/28 05:34:34;;;;;;;7.57;6.53;;;;;;;;;;4960587;28;20965;-88
2022/04/28 05:37:00;;;;;;;10.17;8.80;;;;;;;;;;4939359;29;20452;-87
2022/04/28 05:39:27;;;;;;;11.07;9.97;;;29.20;72.00;;;;;;4952296;29;20435;-88
2022/04/28 05:41:53;;;;;;;8.70;7.80;;;;;;;;;;4941061;29;20452;-88
2022/04/28 05:47:04;;;;;;;11.27;10.17;;;32.50;55.00;;;;;;4954993;28;20208;-89
2022/04/28 05:49:30;;;;;;;11.30;10.20;;;32.50;55.50;;;;;;4935676;29;20446;-89
2022/04/28 05:51:57;;;;;;;13.13;11.43;;;32.00;50.40;;;;;;4951702;28;20474;-88
2022/04/28 05:54:23;;;;;;;12.93;11.93;;;30.30;51.40;;;;;;4936183;29;20637;-88
2022/04/28 05:56:49;;;;;;;13.53;12.43;;;;;;;;;;4936550;29;20580;-88
2022/04/28 05:59:14;;;;;;;15.03;13.53;;;31.50;48.80;;;;;;4957095;28;20210;-89
2022/04/28 06:01:40;;;;;;;14.00;12.90;;;;;;;;;;4944644;28;20459;-89
2022/04/28 06:04:06;;;;;;;16.20;14.50;;;31.50;46.80;;;;;;4962115;28;20196;-88
2022/04/28 06:06:32;;;;;;;14.57;13.47;;;31.80;48.10;;;;;;4950773;28;20437;-89
2022/04/28 06:08:58;;;;;;;16.33;15.03;;;;;;;;;;4956876;28;20428;-89
2022/04/28 06:11:24;;;;;;;16.83;15.60;;;32.10;44.60;;;;;;4935597;29;20765;-89
2022/04/28 06:13:50;;;;;;;15.70;14.70;;;;;;;;;;4942238;28;20476;-89
2022/04/28 06:16:16;;;;;;;15.77;14.60;;;;;;;;;;4934466;29;20191;-88
2022/04/28 06:18:42;;;;;;;16.43;14.97;;;;;;;;;;4937703;28;20876;-88
2022/04/28 06:21:07;;;;;;;16.83;15.20;;;30.90;45.80;;;;;;4949249;28;21015;-89
2022/04/28 06:23:33;;;;;;;15.30;14.20;;;;;;;;;;4927668;29;20437;-91
2022/04/28 06:26:00;;;;;;;16.37;14.90;;;;;;;;;;4952635;28;20200;-88
2022/04/28 06:28:26;;;;;;;15.47;14.20;;;;;;;;;;4935348;29;20446;-87
2022/04/28 06:30:52;;;;;;;16.47;15.27;;;32.20;42.50;;;;;;4938597;29;20496;-89
2022/04/28 06:33:21;;;;;;;18.00;16.70;;;;;;;;;;4934039;29;20520;-87
2022/04/28 06:35:47;;;;;;;19.40;17.80;;;;;;;;;;4936628;29;20252;-89
2022/04/28 06:38:12;;;;;;;17.50;15.93;;;32.20;41.90;;;;;;4938836;29;20491;-89
2022/04/28 06:40:38;;;;;;;18.17;16.77;;;31.20;42.80;;;;;;4955101;28;20489;-88
2022/04/28 06:43:04;;;;;;;18.93;17.40;;;;;;;;;;4938054;29;20248;-88
2022/04/28 06:45:30;;;;;;;18.63;17.33;;;;;;;;;;4957192;28;20611;-88
2022/04/28 06:47:56;;;;;;;16.20;15.00;;;31.50;43.60;;;;;;4936041;29;20531;-88
2022/04/28 06:50:22;;;;;;;17.80;16.53;;;;;;;;;;4935974;29;20538;-89
2022/04/28 06:52:48;;;;;;;18.67;17.37;;;;;;;;;;4936481;29;20214;-87
2022/04/28 06:55:14;;;;;;;18.97;17.57;;;;;;;;;;4941383;29;20444;-89
2022/04/28 06:57:39;;;;;;;19.53;18.03;;;33.30;42.20;;;;;;4959602;28;20440;-88
2022/04/28 07:00:07;;;;;;;17.20;16.00;;;33.10;41.70;;;;;;4949714;28;20459;-88
2022/04/28 07:02:33;;;;;;;20.33;18.43;;;33.70;40.50;;;;;;4938953;29;20203;-88
2022/04/28 07:04:58;;;;;;;18.33;16.93;;;33.90;40.00;;;;;;4938311;28;20417;-87
2022/04/28 07:07:24;;;;;;;19.00;17.60;;;;;;;;;;4948682;28;20255;-88
2022/04/28 07:09:50;;;;;;;18.53;16.93;;;29.80;42.20;;;;;;4942621;29;20190;-88
2022/04/28 07:12:16;;;;;;;17.97;16.67;;;;;;;;;;4928373;28;20471;-88
2022/04/28 07:14:43;;;;;;;18.37;16.97;;;;;;;;;;4946830;28;20233;-88
2022/04/28 07:17:09;;;;;;;18.37;17.03;;;;;;;;;;4944312;29;20438;-87
2022/04/28 07:19:36;;;;;;;18.00;16.70;;;;;;;;;;4939283;29;20463;-88
2022/04/28 07:22:05;;;;;;;19.13;17.73;;;;;;;;;;4941566;29;20924;-87
2022/04/28 07:24:31;;;;;;;19.53;18.13;;;;;;;;;;4958246;28;20435;-88
2022/04/28 07:26:57;;;;;;;17.90;16.40;;;;;;;;;;4950487;28;20430;-87
2022/04/28 07:29:23;;;;;;;17.33;15.93;;;;;;;;;;4943558;29;20436;-89
2022/04/28 07:31:48;;;;;;;18.80;17.13;;;30.10;43.50;;;;;;4938788;28;20981;-88
2022/04/28 07:34:14;;;;;;;17.23;15.50;;;;;;;;;;4938710;29;20474;-88
2022/04/28 07:36:40;;;;;;;17.20;15.90;;;;;;;;;;4936495;29;20179;-88
2022/04/28 07:39:06;;;;;;;17.47;16.07;;;;;;;;;;4936693;28;20410;-88
2022/04/28 07:41:33;;;;;;;17.67;16.37;;;;;;;;;;4955261;28;20487;-89
2022/04/28 07:43:58;;;;;;;17.17;15.90;;;31.40;43.50;;;;;;4932651;29;21031;-89
2022/04/28 07:46:24;;;;;;;18.73;16.90;;;;;;;;;;4957053;28;20454;-89
2022/04/28 07:48:51;;;;;;;19.20;17.80;;;31.80;43.10;;;;;;4950416;29;20192;-87
2022/04/28 07:51:17;;;;;;;17.97;16.57;;;;;;;;;;4942104;28;20516;-87
2022/04/28 07:53:42;;;;;;;17.67;16.33;;;;;;;;;;4936938;29;20510;-87
2022/04/28 07:56:14;;;;;;;18.07;16.67;;;;;;;;;;4952318;28;20796;-87
2022/04/28 07:58:42;;;;;;;16.90;15.57;;;29.10;44.10;;;;;;4952369;29;20881;-91
2022/04/28 08:01:08;;;;;;;16.27;14.97;;;28.50;44.90;;;;;;4938735;29;20439;-88
2022/04/28 08:03:34;;;;;;;17.47;16.10;;;28.50;46.20;;;;;;4953448;29;20443;-88
2022/04/28 08:05:59;;;;;;;15.27;14.13;;;28.50;47.10;;;;;;4936778;29;20580;-88
2022/04/28 08:08:25;;;;;;;16.30;15.00;;;;;;;;;;4928431;29;20238;-89
2022/04/28 08:10:51;;;;;;;17.17;15.67;;;;;;;;;;4937085;29;20207;-88
2022/04/28 08:13:17;;;;;;;16.57;15.17;;;;;;;;;;4932201;29;20498;-88
2022/04/28 08:15:43;;;;;;;17.33;15.80;;;;;;;;;;4937179;29;20443;-91
2022/04/28 08:18:09;;;;;;;15.70;14.50;;;;;;;;;;4951373;29;20442;-89
2022/04/28 08:20:36;;;;;;;15.87;14.57;;;;;;;;;;4951349;29;20460;-87
2022/04/28 08:23:02;;;;;;;16.77;15.40;;;;;;;;;;4951802;29;20510;-87
2022/04/28 08:25:28;;;;;;;17.47;16.17;;;;;;;;;;4930709;29;20812;-87
2022/04/28 08:27:54;;;;;;;16.80;15.60;;;;;;;;;;4935574;29;20450;-88
2022/04/28 08:30:20;;;;;;;17.63;16.30;;;30.10;44.70;;;;;;4954887;28;20855;-88
2022/04/28 08:32:46;;;;;;;17.30;15.97;;;;;;;;;;4933406;29;20469;-88
2022/04/28 08:35:12;;;;;;;18.50;17.10;;;;;;;;;;4928851;28;20501;-88
2022/04/28 08:37:40;;;;;;;16.43;15.20;;;;;;;;;;4937618;29;20842;-88
2022/04/28 08:40:06;;;;;;;17.97;16.60;;;;;;;;;;4936018;29;20486;-90
2022/04/28 08:42:36;;;;;;;18.33;16.90;;;31.50;43.40;;;;;;4933721;29;20447;-88
2022/04/28 08:45:02;;;;;;;17.37;15.67;;;;;;;;;;4939384;28;20486;-90
2022/04/28 08:47:28;;;;;;;17.70;15.90;;;;;;;;;;4940013;28;20429;-90
2022/04/28 08:49:54;;;;;;;18.40;16.83;;;;;;;;;;4936346;29;20429;-87
2022/04/28 08:52:20;;;;;;;19.30;17.87;;;;;;;;;;4943954;29;20462;-90
2022/04/28 08:54:46;;;;;;;18.87;17.37;;;31.50;41.50;;;;;;4944373;29;20437;-91
2022/04/28 08:57:13;;;;;;;17.40;16.20;;;30.20;42.70;;;;;;4937918;29;21006;-90
2022/04/28 08:59:39;;;;;;;16.50;15.30;;;;;;;;;;4957203;29;20466;-88
2022/04/28 09:02:05;;;;;;;16.00;14.90;;;;;;;;;;4945250;29;20431;-88
2022/04/28 09:04:31;;;;;;;17.40;16.07;;;30.30;42.80;;;;;;4955489;28;20514;-88
2022/04/28 09:06:58;;;;;;;18.30;14.47;;;29.70;43.60;;;;;;4934921;29;20471;-88
2022/04/28 09:09:26;;;;;;;16.63;15.43;;;29.50;43.50;;;;;;4956825;29;20197;-87
2022/04/28 09:11:53;;;;;;;14.83;13.80;;;;;;;;;;4943466;29;20447;-88
2022/04/28 09:14:22;;;;;;;15.43;14.23;;;30.20;44.80;;;;;;4942286;29;20533;-88
2022/04/28 09:16:51;;;;;;;15.90;14.73;;;30.50;43.90;;;;;;4947861;28;20429;-88
2022/04/28 09:19:23;;;;;;;16.50;15.30;;;31.10;41.60;;;;;;4935598;29;20454;-91
2022/04/28 09:21:53;;;;;;;14.80;13.70;;;31.50;42.80;;;;;;4940211;29;20441;-89
2022/04/28 09:24:23;;;;;;;17.10;15.90;;;30.30;40.90;;;;;;4950831;29;20516;-89
2022/04/28 09:26:53;;;;;;;16.67;15.30;;;30.50;45.80;;;;;;4935327;29;20432;-87
2022/04/28 09:29:19;;;;;;;15.00;13.97;;;;;;;;;;4946363;29;20804;-87
2022/04/28 09:31:46;;;;;;;18.00;16.27;;;32.30;41.20;;;;;;4936897;29;20461;-87
2022/04/28 09:34:14;;;;;;;16.57;15.27;;;32.60;40.30;;;;;;4947482;29;20470;-89
2022/04/28 09:36:41;;;;;;;16.43;15.03;;;33.20;38.40;;;;;;4942965;29;20451;-90
2022/04/28 09:39:08;;;;;;;16.37;15.40;;;33.50;37.10;;;;;;4937584;29;20440;-90
2022/04/28 09:44:20;;;;;;;16.30;15.20;;;31.60;35.60;;;;;;4948691;29;20750;-88
2022/04/28 09:46:47;;;;;;;15.50;14.10;;;30.50;35.90;;;;;;4934724;29;20480;-87
2022/04/28 09:49:16;;;;;;;16.53;15.10;;;29.50;38.10;;;;;;4954211;29;20458;-89
2022/04/28 09:51:43;;;;;;;15.60;14.40;;;29.90;37.30;;;;;;4936502;29;20842;-89
2022/04/28 09:54:11;;;;;;;16.33;15.20;;;30.20;36.90;;;;;;4935537;29;21242;-89
2022/04/28 09:56:38;;;;;;;13.80;12.90;;;30.30;37.20;;;;;;4931000;29;20972;-90
2022/04/28 09:59:05;;;;;;;17.10;15.80;;;29.60;36.40;;;;;;4939200;29;20999;-89
2022/04/28 10:01:34;;;;;;;15.33;14.07;;;30.10;41.80;;;;;;4939821;29;20511;-89
2022/04/28 10:04:00;;;;;;;16.20;14.80;;;30.70;37.90;;;;;;4937204;28;20449;-89
2022/04/28 10:06:27;;;;;;;14.93;13.73;;;30.10;37.20;;;;;;4934613;29;20503;-90
2022/04/28 10:08:53;;;;;;;14.20;13.20;;;;;;;;;;4936268;29;20440;-89
2022/04/28 10:11:24;;;;;;;13.80;12.97;;;29.00;37.00;;;;;;4948980;28;20515;-88
2022/04/28 10:13:51;;;;;;;12.97;12.07;;;28.70;39.70;;;;;;4933363;29;20474;-89
2022/04/28 10:16:19;;;;;;;14.63;13.63;;;29.30;39.40;;;;;;4937032;29;20470;-89
2022/04/28 10:18:49;;;;;;;13.90;12.90;;;29.30;36.30;;;;;;4952693;28;20799;-90
2022/04/28 10:21:20;;;;;;;12.93;11.97;;;27.50;38.10;;;;;;4952958;29;20519;-89
2022/04/28 10:32:25;;;;;;;9.83;7.70;;;24.00;45.10;;;;;;4948429;29;20431;-90
2022/04/28 10:35:06;;;;;;;6.40;6.00;;;23.90;41.70;;;;;;4930291;29;20451;-89
2022/04/28 10:37:33;;;;;;;6.60;6.00;;;22.80;42.70;;;;;;4934762;29;20441;-88
2022/04/28 10:39:59;;;;;;;6.17;5.57;;;;;;;;;;4934337;29;20424;-92
2022/04/28 10:42:28;;;;;;;7.00;6.00;;;21.30;39.00;;;;;;4935927;29;21032;-90
2022/04/28 10:44:55;;;;;;;6.90;5.40;;;20.70;41.20;;;;;;4935362;28;20511;-88
2022/04/28 10:47:22;;;;;;;5.70;5.10;;;20.10;41.50;;;;;;4936897;29;20433;-90
2022/04/28 10:49:53;;;;;;;6.03;5.60;;;20.00;41.30;;;;;;4934875;28;20538;-89
2022/04/28 10:52:23;;;;;;;7.07;4.73;;;20.00;41.80;;;;;;4951802;28;20511;-90
2022/04/28 10:54:54;;;;;;;5.77;5.37;;;20.10;42.80;;;;;;4950075;28;20452;-89
2022/04/28 10:57:32;;;;;;;5.47;4.97;;;20.00;41.30;;;;;;4949237;29;20923;-90
2022/04/28 11:00:00;;;;;;;5.67;5.27;;;20.00;41.20;;;;;;4952045;28;20803;-89
2022/04/28 11:02:26;;;;;;;5.47;4.33;;;20.00;43.00;;;;;;4951067;28;20454;-90
2022/04/28 11:05:01;;;;;;;6.03;4.70;;;20.00;43.00;;;;;;4934833;29;20472;-89
2022/04/28 11:07:30;;;;;;;6.70;5.20;;;20.00;43.00;;;;;;4953492;28;20556;-89
2022/04/28 11:10:02;;;;;;;5.60;5.20;;;20.00;42.00;;;;;;4949605;29;20811;-88
2022/04/28 11:12:41;;;;;;;5.57;5.20;;;20.00;42.50;;;;;;4938324;29;20468;-89
2022/04/28 11:15:13;;;;;;;5.73;5.30;;;20.00;44.60;;;;;;4935138;29;20441;-90
2022/04/28 11:17:47;;;;;;;7.70;5.70;;;20.00;46.40;;;;;;4934760;29;20428;-90
2022/04/28 11:20:19;;;;;;;6.47;5.87;;;20.20;45.40;;;;;;4957412;28;20953;-89
2022/04/28 11:22:47;;;;;;;5.63;5.10;;;20.10;43.30;;;;;;4935416;29;20440;-89
2022/04/28 11:25:14;;;;;;;5.43;4.93;;;19.90;44.90;;;;;;4955623;28;20786;-89
2022/04/28 11:27:41;;;;;;;5.47;4.97;;;19.80;43.40;;;;;;4951305;28;20438;-89
2022/04/28 11:30:12;;;;;;;5.50;5.00;;;19.70;44.40;;;;;;4951714;28;20443;-90
2022/04/28 11:32:58;;;;;;;5.80;5.40;;;19.90;44.40;;;;;;4950534;28;20481;-91
2022/04/28 11:35:35;;;;;;;6.33;5.73;;;20.10;45.30;;;;;;4954124;28;20491;-90
2022/04/28 11:38:01;;;;;;;5.87;5.40;;;20.20;45.10;;;;;;4939292;28;20467;-91
2022/04/28 11:40:28;;;;;;;10.47;5.20;;;21.10;44.90;;;;;;4928265;29;20456;-88
2022/04/28 11:43:01;;;;;;;5.60;5.10;;;20.30;46.40;;;;;;4935106;28;20507;-88
2022/04/28 11:45:29;;;;;;;6.03;4.30;;;20.60;43.10;;;;;;4934907;29;20906;-88
2022/04/28 11:47:57;;;;;;;5.73;5.17;;;;;;;;;;4930565;29;20467;-90
2022/04/28 11:50:24;;;;;;;6.73;5.50;;;20.60;43.60;;;;;;4947504;28;20896;-90
2022/04/28 11:53:11;;;;;;;6.17;5.60;;;20.60;44.10;;;;;;4935418;29;20494;-90
2022/04/28 11:55:40;;;;;;;5.00;4.50;;;20.60;45.60;;;;;;4935482;28;20994;-89
2022/04/28 11:58:07;;;;;;;5.27;4.70;;;20.50;44.00;;;;;;4952723;28;20444;-89
2022/04/28 12:00:41;;;;;;;5.80;5.30;;;20.50;44.50;;;;;;4934534;28;20555;-88
2022/04/28 12:03:07;;;;;;;6.37;5.77;;;20.40;45.10;;;;;;4939945;29;20678;-89
2022/04/28 12:05:34;;;;;;;7.90;5.23;;;20.40;44.80;;;;;;4950992;28;20444;-88
2022/04/28 12:08:00;;;;;;;6.23;5.57;;;20.30;45.20;;;;;;4948710;28;20474;-89
2022/04/28 12:16:06;;;;;;;6.83;5.40;;;20.60;46.80;;;;;;4949022;28;20494;-87
2022/04/28 12:21:21;;;;;;;8.77;5.10;;;20.60;45.70;;;;;;4949635;28;20453;-89
2022/04/28 12:23:50;;;;;;;5.67;4.60;;;20.70;46.90;;;;;;4935852;28;20435;-88
2022/04/28 12:26:19;;;;;;;5.07;4.67;;;20.80;44.60;;;;;;4934480;28;20442;-89
2022/04/28 12:28:45;;;;;;;5.60;4.73;;;;;;;;;;4950006;28;21023;-91
2022/04/28 12:31:25;;;;;;;5.60;4.87;;;20.90;43.80;;;;;;4938644;28;20539;-89
2022/04/28 12:33:51;;;;;;;5.57;5.07;;;20.90;44.40;;;;;;4947467;28;20471;-87
2022/04/28 12:36:17;;;;;;;6.47;5.87;;;20.70;44.70;;;;;;4932048;29;20464;-89
2022/04/28 12:38:44;;;;;;;5.23;4.70;;;20.60;45.40;;;;;;4952958;28;20263;-89
2022/04/28 12:41:19;;;;;;;5.27;4.87;;;20.60;46.00;;;;;;4940599;29;20582;-90
2022/04/28 12:44:06;;;;;;;6.37;5.77;;;20.60;45.60;;;;;;4939225;28;20442;-89
2022/04/28 12:46:34;;;;;;;5.03;4.63;;;20.70;45.50;;;;;;4935874;29;20476;-88
2022/04/28 12:49:03;;;;;;;6.00;5.40;;;20.40;46.10;;;;;;4953970;28;20439;-89
2022/04/28 12:51:39;;;;;;;7.00;4.90;;;20.40;46.50;;;;;;4936231;29;20956;-89
2022/04/28 12:54:16;;;;;;;5.60;4.53;;;20.70;46.50;;;;;;4934611;28;20494;-90
2022/04/28 12:56:46;;;;;;;6.00;4.70;;;20.90;47.60;;;;;;4948347;28;20444;-87
2022/04/28 12:59:14;;;;;;;6.80;5.77;;;20.90;47.00;;;;;;4939781;28;20428;-88
2022/04/28 13:01:42;;;;;;;9.33;5.53;;;20.80;45.70;;;;;;4936848;29;20550;-88
2022/04/28 13:04:11;;;;;;;5.70;5.20;;;20.80;46.20;;;;;;4956538;28;20444;-88
2022/04/28 13:06:45;;;;;;;6.63;5.37;;;20.80;47.80;;;;;;4949870;28;20467;-89
2022/04/28 13:09:13;;;;;;;5.10;4.60;;;20.40;46.40;;;;;;4951151;28;21144;-88
2022/04/28 13:11:40;;;;;;;5.90;5.23;;;20.30;44.80;;;;;;4938756;29;20467;-88
2022/04/28 13:14:11;;;;;;;6.43;5.70;;;20.20;45.30;;;;;;4952956;28;20469;-87
2022/04/28 13:16:38;;;;;;;5.50;5.00;;;20.20;45.90;;;;;;4939225;29;20467;-90
2022/04/28 13:19:04;;;;;;;5.80;5.30;;;;;;;;;;4935378;29;20420;-89
2022/04/28 13:21:30;;;;;;;6.37;5.20;;;20.20;46.00;;;;;;4938524;29;20451;-89
2022/04/28 13:23:56;;;;;;;4.83;4.40;;;;;;;;;;4939545;29;20443;-89
2022/04/28 13:26:24;;;;;;;5.73;5.20;;;20.40;46.00;;;;;;4931814;29;20506;-89
2022/04/28 13:28:51;;;;;;;6.10;5.50;;;20.50;47.70;;;;;;4943491;28;20431;-91
2022/04/28 13:31:16;;;;;;;5.60;4.50;;;20.50;50.80;;;;;;4951474;28;20459;-88
2022/04/28 13:33:43;;;;;;;5.43;4.93;;;;;;;;;;4956253;28;20479;-87
2022/04/28 13:36:09;;;;;;;5.73;4.77;;;20.70;48.40;;;;;;4941071;29;20432;-87
2022/04/28 13:38:35;;;;;;;7.87;5.07;;;;;;;;;;4939158;28;20454;-89
2022/04/28 13:41:01;;;;;;;5.07;4.57;;;;;;;;;;4952557;29;20452;-89
2022/04/28 13:43:28;;;;;;;4.77;4.37;;;;;;;;;;4953013;28;20435;-88
2022/04/28 13:45:54;;;;;;;7.47;4.43;;;;;;;;;;4931342;28;20922;-90